sensor_id;sensor_type;location;lat;lon;timestamp;temperature;humidity
67777;DHT22;54576;52.020;5.536;2023-01-13T00:00:43;9.80;99.90
67777;DHT22;54576;52.020;5.536;2023-01-13T00:03:09;9.70;99.90
67777;DHT22;54576;52.020;5.536;2023-01-13T00:05:36;9.70;99.90
67777;DHT22;54576;52.020;5.536;2023-01-13T00:08:02;9.60;99.90
67777;DHT22;54576;52.020;5.536;2023-01-13T00:10:29;9.60;99.90
67777;DHT22;54576;52.020;5.536;2023-01-13T00:12:55;9.50;99.90
67777;DHT22;54576;52.020;5.536;2023-01-13T00:15:20;9.40;99.90
67777;DHT22;54576;52.020;5.536;2023-01-13T00:17:46;9.40;99.90
67777;DHT22;54576;52.020;5.536;2023-01-13T00:20:13;9.30;99.90
67777;DHT22;54576;52.020;5.536;2023-01-13T00:22:39;9.30;99.90
67777;DHT22;54576;52.020;5.536;2023-01-13T00:25:05;9.20;99.90
67777;DHT22;54576;52.020;5.536;2023-01-13T00:27:31;9.20;99.90
67777;DHT22;54576;52.020;5.536;2023-01-13T00:29:57;9.10;99.90
67777;DHT22;54576;52.020;5.536;2023-01-13T00:32:24;9.00;99.90
67777;DHT22;54576;52.020;5.536;2023-01-13T00:34:50;9.00;99.90
67777;DHT22;54576;52.020;5.536;2023-01-13T00:37:16;9.00;99.90
67777;DHT22;54576;52.020;5.536;2023-01-13T00:39:41;8.90;99.90
67777;DHT22;54576;52.020;5.536;2023-01-13T00:42:07;8.90;99.90
67777;DHT22;54576;52.020;5.536;2023-01-13T00:44:55;8.90;99.90
67777;DHT22;54576;52.020;5.536;2023-01-13T00:47:24;8.90;99.90
67777;DHT22;54576;52.020;5.536;2023-01-13T00:49:54;8.90;99.90
67777;DHT22;54576;52.020;5.536;2023-01-13T00:52:20;8.80;99.90
67777;DHT22;54576;52.020;5.536;2023-01-13T00:54:47;8.80;99.90
67777;DHT22;54576;52.020;5.536;2023-01-13T00:57:13;8.80;99.90
67777;DHT22;54576;52.020;5.536;2023-01-13T00:59:40;8.80;99.90
67777;DHT22;54576;52.020;5.536;2023-01-13T01:02:05;8.80;99.90
67777;DHT22;54576;52.020;5.536;2023-01-13T01:04:31;8.80;99.90
67777;DHT22;54576;52.020;5.536;2023-01-13T01:06:57;8.80;99.90
67777;DHT22;54576;52.020;5.536;2023-01-13T01:09:22;8.90;99.90
67777;DHT22;54576;52.020;5.536;2023-01-13T01:11:48;8.90;99.90
67777;DHT22;54576;52.020;5.536;2023-01-13T01:14:13;8.90;99.90
67777;DHT22;54576;52.020;5.536;2023-01-13T01:16:40;8.90;99.90
67777;DHT22;54576;52.020;5.536;2023-01-13T01:19:06;8.90;99.90
67777;DHT22;54576;52.020;5.536;2023-01-13T01:21:32;9.00;99.90
67777;DHT22;54576;52.020;5.536;2023-01-13T01:23:59;9.00;99.90
67777;DHT22;54576;52.020;5.536;2023-01-13T01:26:27;9.00;99.90
67777;DHT22;54576;52.020;5.536;2023-01-13T01:28:53;9.00;99.90
67777;DHT22;54576;52.020;5.536;2023-01-13T01:31:22;9.00;99.90
67777;DHT22;54576;52.020;5.536;2023-01-13T01:33:48;8.90;99.90
67777;DHT22;54576;52.020;5.536;2023-01-13T01:36:16;8.90;99.90
67777;DHT22;54576;52.020;5.536;2023-01-13T01:38:42;8.90;99.90
67777;DHT22;54576;52.020;5.536;2023-01-13T01:41:13;8.90;99.90
67777;DHT22;54576;52.020;5.536;2023-01-13T01:43:52;8.80;99.90
67777;DHT22;54576;52.020;5.536;2023-01-13T01:46:43;8.80;99.90
67777;DHT22;54576;52.020;5.536;2023-01-13T01:49:16;8.70;99.90
67777;DHT22;54576;52.020;5.536;2023-01-13T01:52:00;8.70;99.90
67777;DHT22;54576;52.020;5.536;2023-01-13T01:54:34;8.70;99.90
67777;DHT22;54576;52.020;5.536;2023-01-13T01:57:01;8.70;99.90
67777;DHT22;54576;52.020;5.536;2023-01-13T01:59:29;8.70;99.90
67777;DHT22;54576;52.020;5.536;2023-01-13T02:01:56;8.70;99.90
67777;DHT22;54576;52.020;5.536;2023-01-13T02:04:24;8.70;99.90
67777;DHT22;54576;52.020;5.536;2023-01-13T02:06:55;8.70;99.90
67777;DHT22;54576;52.020;5.536;2023-01-13T02:09:23;8.70;99.90
67777;DHT22;54576;52.020;5.536;2023-01-13T02:11:49;8.70;99.90
67777;DHT22;54576;52.020;5.536;2023-01-13T02:14:34;8.70;99.90
67777;DHT22;54576;52.020;5.536;2023-01-13T02:20:23;8.60;99.90
67777;DHT22;54576;52.020;5.536;2023-01-13T02:31:43;8.60;99.90
67777;DHT22;54576;52.020;5.536;2023-01-13T02:34:16;8.60;99.90
67777;DHT22;54576;52.020;5.536;2023-01-13T02:36:49;8.60;99.90
67777;DHT22;54576;52.020;5.536;2023-01-13T02:42:09;8.60;99.90
67777;DHT22;54576;52.020;5.536;2023-01-13T02:45:03;8.60;99.90
67777;DHT22;54576;52.020;5.536;2023-01-13T02:47:35;8.50;99.90
67777;DHT22;54576;52.020;5.536;2023-01-13T02:50:11;8.50;99.90
67777;DHT22;54576;52.020;5.536;2023-01-13T02:52:51;8.60;99.90
67777;DHT22;54576;52.020;5.536;2023-01-13T02:55:33;8.60;99.90
67777;DHT22;54576;52.020;5.536;2023-01-13T02:58:02;8.60;99.90
67777;DHT22;54576;52.020;5.536;2023-01-13T03:00:28;8.70;99.90
67777;DHT22;54576;52.020;5.536;2023-01-13T03:02:55;8.70;99.90
67777;DHT22;54576;52.020;5.536;2023-01-13T03:05:21;8.70;99.90
67777;DHT22;54576;52.020;5.536;2023-01-13T03:08:26;8.70;99.90
67777;DHT22;54576;52.020;5.536;2023-01-13T03:11:08;8.70;99.90
67777;DHT22;54576;52.020;5.536;2023-01-13T03:14:02;8.70;99.90
67777;DHT22;54576;52.020;5.536;2023-01-13T03:17:36;8.70;99.90
67777;DHT22;54576;52.020;5.536;2023-01-13T03:19:56;8.80;99.90
67777;DHT22;54576;52.020;5.536;2023-01-13T03:25:27;8.80;99.90
67777;DHT22;54576;52.020;5.536;2023-01-13T03:28:07;8.80;99.90
67777;DHT22;54576;52.020;5.536;2023-01-13T03:30:46;8.90;99.90
67777;DHT22;54576;52.020;5.536;2023-01-13T03:35:57;8.90;99.90
67777;DHT22;54576;52.020;5.536;2023-01-13T03:38:35;8.90;99.90
67777;DHT22;54576;52.020;5.536;2023-01-13T03:41:28;8.80;99.90
67777;DHT22;54576;52.020;5.536;2023-01-13T03:44:18;8.90;99.90
67777;DHT22;54576;52.020;5.536;2023-01-13T03:52:07;8.80;99.90
67777;DHT22;54576;52.020;5.536;2023-01-13T03:54:41;8.80;99.90
67777;DHT22;54576;52.020;5.536;2023-01-13T03:57:11;8.70;99.90
67777;DHT22;54576;52.020;5.536;2023-01-13T03:59:41;8.70;99.90
67777;DHT22;54576;52.020;5.536;2023-01-13T04:02:09;8.70;99.90
67777;DHT22;54576;52.020;5.536;2023-01-13T04:04:51;8.70;99.90
67777;DHT22;54576;52.020;5.536;2023-01-13T04:10:37;8.70;99.90
67777;DHT22;54576;52.020;5.536;2023-01-13T04:13:07;8.60;99.90
67777;DHT22;54576;52.020;5.536;2023-01-13T04:15:40;8.60;99.90
67777;DHT22;54576;52.020;5.536;2023-01-13T04:18:19;8.50;99.90
67777;DHT22;54576;52.020;5.536;2023-01-13T04:20:47;8.50;99.90
67777;DHT22;54576;52.020;5.536;2023-01-13T04:23:13;8.40;99.90
67777;DHT22;54576;52.020;5.536;2023-01-13T04:25:40;8.50;99.90
67777;DHT22;54576;52.020;5.536;2023-01-13T04:28:06;8.40;99.90
67777;DHT22;54576;52.020;5.536;2023-01-13T04:30:32;8.40;99.90
67777;DHT22;54576;52.020;5.536;2023-01-13T04:32:58;8.40;99.90
67777;DHT22;54576;52.020;5.536;2023-01-13T04:35:23;8.30;99.90
67777;DHT22;54576;52.020;5.536;2023-01-13T04:37:49;8.30;99.90
67777;DHT22;54576;52.020;5.536;2023-01-13T04:40:14;8.30;99.90
67777;DHT22;54576;52.020;5.536;2023-01-13T04:42:42;8.30;99.90
67777;DHT22;54576;52.020;5.536;2023-01-13T04:45:09;8.20;99.90
67777;DHT22;54576;52.020;5.536;2023-01-13T04:47:34;8.20;99.90
67777;DHT22;54576;52.020;5.536;2023-01-13T04:50:00;8.20;99.90
67777;DHT22;54576;52.020;5.536;2023-01-13T04:52:25;8.20;99.90
67777;DHT22;54576;52.020;5.536;2023-01-13T04:54:51;8.10;99.90
67777;DHT22;54576;52.020;5.536;2023-01-13T04:57:16;8.10;99.90
67777;DHT22;54576;52.020;5.536;2023-01-13T04:59:42;8.10;99.90
67777;DHT22;54576;52.020;5.536;2023-01-13T05:02:07;8.10;99.90
67777;DHT22;54576;52.020;5.536;2023-01-13T05:04:34;8.10;99.90
67777;DHT22;54576;52.020;5.536;2023-01-13T05:07:00;8.00;99.90
67777;DHT22;54576;52.020;5.536;2023-01-13T05:09:25;8.00;99.90
67777;DHT22;54576;52.020;5.536;2023-01-13T05:11:51;8.00;99.90
67777;DHT22;54576;52.020;5.536;2023-01-13T05:14:35;8.00;99.90
67777;DHT22;54576;52.020;5.536;2023-01-13T05:17:22;8.10;99.90
67777;DHT22;54576;52.020;5.536;2023-01-13T05:19:49;8.10;99.90
67777;DHT22;54576;52.020;5.536;2023-01-13T05:22:14;8.10;99.90
67777;DHT22;54576;52.020;5.536;2023-01-13T05:24:58;8.20;99.90
67777;DHT22;54576;52.020;5.536;2023-01-13T05:27:43;8.20;99.90
67777;DHT22;54576;52.020;5.536;2023-01-13T05:30:09;8.20;99.90
67777;DHT22;54576;52.020;5.536;2023-01-13T05:32:34;8.20;99.90
67777;DHT22;54576;52.020;5.536;2023-01-13T05:35:00;8.30;99.90
67777;DHT22;54576;52.020;5.536;2023-01-13T05:37:26;8.30;99.90
67777;DHT22;54576;52.020;5.536;2023-01-13T05:39:53;8.30;99.90
67777;DHT22;54576;52.020;5.536;2023-01-13T05:42:38;8.40;99.90
67777;DHT22;54576;52.020;5.536;2023-01-13T05:45:22;8.30;99.90
67777;DHT22;54576;52.020;5.536;2023-01-13T05:47:48;8.40;99.90
67777;DHT22;54576;52.020;5.536;2023-01-13T05:50:14;8.30;99.90
67777;DHT22;54576;52.020;5.536;2023-01-13T05:52:40;8.30;99.90
67777;DHT22;54576;52.020;5.536;2023-01-13T05:55:06;8.30;99.90
67777;DHT22;54576;52.020;5.536;2023-01-13T05:57:32;8.30;99.90
67777;DHT22;54576;52.020;5.536;2023-01-13T05:59:57;8.20;99.90
67777;DHT22;54576;52.020;5.536;2023-01-13T06:02:23;8.10;99.90
67777;DHT22;54576;52.020;5.536;2023-01-13T06:04:49;8.10;99.90
67777;DHT22;54576;52.020;5.536;2023-01-13T06:07:14;8.10;99.90
67777;DHT22;54576;52.020;5.536;2023-01-13T06:09:40;8.00;99.90
67777;DHT22;54576;52.020;5.536;2023-01-13T06:12:05;8.00;99.90
67777;DHT22;54576;52.020;5.536;2023-01-13T06:14:31;8.00;99.90
67777;DHT22;54576;52.020;5.536;2023-01-13T06:17:13;7.90;99.90
67777;DHT22;54576;52.020;5.536;2023-01-13T06:19:40;7.90;99.90
67777;DHT22;54576;52.020;5.536;2023-01-13T06:22:12;7.90;99.90
67777;DHT22;54576;52.020;5.536;2023-01-13T06:24:39;7.90;99.90
67777;DHT22;54576;52.020;5.536;2023-01-13T06:27:07;7.90;99.90
67777;DHT22;54576;52.020;5.536;2023-01-13T06:29:33;7.90;99.90
67777;DHT22;54576;52.020;5.536;2023-01-13T06:32:03;7.90;99.90
67777;DHT22;54576;52.020;5.536;2023-01-13T06:34:30;7.80;99.90
67777;DHT22;54576;52.020;5.536;2023-01-13T06:36:56;7.90;99.90
67777;DHT22;54576;52.020;5.536;2023-01-13T06:39:25;7.90;99.90
67777;DHT22;54576;52.020;5.536;2023-01-13T06:41:53;7.90;99.90
67777;DHT22;54576;52.020;5.536;2023-01-13T06:44:38;7.90;99.90
67777;DHT22;54576;52.020;5.536;2023-01-13T06:47:03;7.90;99.90
67777;DHT22;54576;52.020;5.536;2023-01-13T06:49:29;8.00;99.90
67777;DHT22;54576;52.020;5.536;2023-01-13T06:51:55;8.00;99.90
67777;DHT22;54576;52.020;5.536;2023-01-13T06:54:20;8.00;99.90
67777;DHT22;54576;52.020;5.536;2023-01-13T06:56:46;8.00;99.90
67777;DHT22;54576;52.020;5.536;2023-01-13T06:59:11;8.00;99.90
67777;DHT22;54576;52.020;5.536;2023-01-13T07:01:37;8.10;99.90
67777;DHT22;54576;52.020;5.536;2023-01-13T07:04:02;8.10;99.90
67777;DHT22;54576;52.020;5.536;2023-01-13T07:06:28;8.10;99.90
67777;DHT22;54576;52.020;5.536;2023-01-13T07:08:54;8.20;99.90
67777;DHT22;54576;52.020;5.536;2023-01-13T07:11:19;8.10;99.90
67777;DHT22;54576;52.020;5.536;2023-01-13T07:13:45;8.20;99.90
67777;DHT22;54576;52.020;5.536;2023-01-13T07:16:29;8.20;99.90
67777;DHT22;54576;52.020;5.536;2023-01-13T07:18:55;8.20;99.90
67777;DHT22;54576;52.020;5.536;2023-01-13T07:21:21;8.20;99.90
67777;DHT22;54576;52.020;5.536;2023-01-13T07:23:46;8.20;99.90
67777;DHT22;54576;52.020;5.536;2023-01-13T07:26:13;8.30;99.90
67777;DHT22;54576;52.020;5.536;2023-01-13T07:28:39;8.20;99.90
67777;DHT22;54576;52.020;5.536;2023-01-13T07:31:14;8.30;99.90
67777;DHT22;54576;52.020;5.536;2023-01-13T07:33:40;8.30;99.90
67777;DHT22;54576;52.020;5.536;2023-01-13T07:36:05;8.30;99.90
67777;DHT22;54576;52.020;5.536;2023-01-13T07:38:32;8.20;99.90
67777;DHT22;54576;52.020;5.536;2023-01-13T07:40:58;8.30;99.90
67777;DHT22;54576;52.020;5.536;2023-01-13T07:43:47;8.30;99.90
67777;DHT22;54576;52.020;5.536;2023-01-13T07:46:13;8.30;99.90
67777;DHT22;54576;52.020;5.536;2023-01-13T07:48:38;8.30;99.90
67777;DHT22;54576;52.020;5.536;2023-01-13T07:51:06;8.30;99.90
67777;DHT22;54576;52.020;5.536;2023-01-13T07:53:33;8.30;99.90
67777;DHT22;54576;52.020;5.536;2023-01-13T07:55:59;8.40;99.90
67777;DHT22;54576;52.020;5.536;2023-01-13T07:58:26;8.40;99.90
67777;DHT22;54576;52.020;5.536;2023-01-13T08:00:52;8.50;99.90
67777;DHT22;54576;52.020;5.536;2023-01-13T08:03:18;8.50;99.90
67777;DHT22;54576;52.020;5.536;2023-01-13T08:05:44;8.50;99.90
67777;DHT22;54576;52.020;5.536;2023-01-13T08:08:09;8.50;99.90
67777;DHT22;54576;52.020;5.536;2023-01-13T08:10:35;8.50;99.90
67777;DHT22;54576;52.020;5.536;2023-01-13T08:13:14;8.50;99.90
67777;DHT22;54576;52.020;5.536;2023-01-13T08:15:45;8.50;99.90
67777;DHT22;54576;52.020;5.536;2023-01-13T08:18:10;8.50;99.90
67777;DHT22;54576;52.020;5.536;2023-01-13T08:20:36;8.50;99.90
67777;DHT22;54576;52.020;5.536;2023-01-13T08:23:02;8.50;99.90
67777;DHT22;54576;52.020;5.536;2023-01-13T08:25:28;8.50;99.90
67777;DHT22;54576;52.020;5.536;2023-01-13T08:27:55;8.50;99.90
67777;DHT22;54576;52.020;5.536;2023-01-13T08:30:21;8.50;99.90
67777;DHT22;54576;52.020;5.536;2023-01-13T08:32:47;8.50;99.90
67777;DHT22;54576;52.020;5.536;2023-01-13T08:35:14;8.50;99.90
67777;DHT22;54576;52.020;5.536;2023-01-13T08:37:40;8.60;99.90
67777;DHT22;54576;52.020;5.536;2023-01-13T08:40:06;8.60;99.90
67777;DHT22;54576;52.020;5.536;2023-01-13T08:42:32;8.60;99.90
67777;DHT22;54576;52.020;5.536;2023-01-13T08:44:58;8.60;99.90
67777;DHT22;54576;52.020;5.536;2023-01-13T08:47:27;8.60;99.90
67777;DHT22;54576;52.020;5.536;2023-01-13T08:49:53;8.60;99.90
67777;DHT22;54576;52.020;5.536;2023-01-13T08:52:19;8.60;99.90
67777;DHT22;54576;52.020;5.536;2023-01-13T08:54:45;8.60;99.90
67777;DHT22;54576;52.020;5.536;2023-01-13T08:57:11;8.60;99.90
67777;DHT22;54576;52.020;5.536;2023-01-13T08:59:37;8.60;99.90
67777;DHT22;54576;52.020;5.536;2023-01-13T09:02:02;8.60;99.90
67777;DHT22;54576;52.020;5.536;2023-01-13T09:04:30;8.60;99.90
67777;DHT22;54576;52.020;5.536;2023-01-13T09:06:56;8.60;99.90
67777;DHT22;54576;52.020;5.536;2023-01-13T09:09:22;8.60;99.90
67777;DHT22;54576;52.020;5.536;2023-01-13T09:11:49;8.60;99.90
67777;DHT22;54576;52.020;5.536;2023-01-13T09:14:36;8.50;99.90
67777;DHT22;54576;52.020;5.536;2023-01-13T09:17:01;8.40;99.90
67777;DHT22;54576;52.020;5.536;2023-01-13T09:19:27;8.50;99.90
67777;DHT22;54576;52.020;5.536;2023-01-13T09:21:55;8.40;99.90
67777;DHT22;54576;52.020;5.536;2023-01-13T09:24:21;8.40;99.90
67777;DHT22;54576;52.020;5.536;2023-01-13T09:26:47;8.30;99.90
67777;DHT22;54576;52.020;5.536;2023-01-13T09:29:13;8.30;99.90
67777;DHT22;54576;52.020;5.536;2023-01-13T09:31:40;8.30;99.90
67777;DHT22;54576;52.020;5.536;2023-01-13T09:34:06;8.30;99.90
67777;DHT22;54576;52.020;5.536;2023-01-13T09:36:50;8.20;99.90
67777;DHT22;54576;52.020;5.536;2023-01-13T09:39:17;8.20;99.90
67777;DHT22;54576;52.020;5.536;2023-01-13T09:41:48;8.10;99.90
67777;DHT22;54576;52.020;5.536;2023-01-13T09:44:54;8.20;99.90
67777;DHT22;54576;52.020;5.536;2023-01-13T09:47:29;8.10;99.90
67777;DHT22;54576;52.020;5.536;2023-01-13T09:50:07;8.10;99.90
67777;DHT22;54576;52.020;5.536;2023-01-13T09:52:33;8.10;99.90
67777;DHT22;54576;52.020;5.536;2023-01-13T09:55:24;8.00;99.90
67777;DHT22;54576;52.020;5.536;2023-01-13T09:57:51;8.00;99.90
67777;DHT22;54576;52.020;5.536;2023-01-13T10:00:26;8.00;99.90
67777;DHT22;54576;52.020;5.536;2023-01-13T10:03:27;8.00;99.90
67777;DHT22;54576;52.020;5.536;2023-01-13T10:08:42;8.10;99.90
67777;DHT22;54576;52.020;5.536;2023-01-13T10:11:20;8.10;99.90
67777;DHT22;54576;52.020;5.536;2023-01-13T10:16:51;8.20;99.90
67777;DHT22;54576;52.020;5.536;2023-01-13T10:27:33;8.20;99.90
67777;DHT22;54576;52.020;5.536;2023-01-13T10:30:15;8.30;99.90
67777;DHT22;54576;52.020;5.536;2023-01-13T10:32:46;8.40;99.90
67777;DHT22;54576;52.020;5.536;2023-01-13T10:35:14;8.40;99.90
67777;DHT22;54576;52.020;5.536;2023-01-13T10:37:55;8.50;99.90
67777;DHT22;54576;52.020;5.536;2023-01-13T10:40:21;8.60;99.90
67777;DHT22;54576;52.020;5.536;2023-01-13T10:42:47;8.50;99.90
67777;DHT22;54576;52.020;5.536;2023-01-13T10:45:23;8.60;99.90
67777;DHT22;54576;52.020;5.536;2023-01-13T10:48:05;8.60;99.90
67777;DHT22;54576;52.020;5.536;2023-01-13T10:50:34;8.70;99.90
67777;DHT22;54576;52.020;5.536;2023-01-13T10:53:08;8.70;99.90
67777;DHT22;54576;52.020;5.536;2023-01-13T10:55:40;8.70;99.90
67777;DHT22;54576;52.020;5.536;2023-01-13T10:58:19;8.70;99.90
67777;DHT22;54576;52.020;5.536;2023-01-13T11:00:46;8.70;99.90
67777;DHT22;54576;52.020;5.536;2023-01-13T11:03:23;8.70;99.90
67777;DHT22;54576;52.020;5.536;2023-01-13T11:05:55;8.70;99.90
67777;DHT22;54576;52.020;5.536;2023-01-13T11:08:25;8.70;99.90
67777;DHT22;54576;52.020;5.536;2023-01-13T11:10:57;8.70;99.90
67777;DHT22;54576;52.020;5.536;2023-01-13T11:13:29;8.80;99.90
67777;DHT22;54576;52.020;5.536;2023-01-13T11:16:09;8.80;99.90
67777;DHT22;54576;52.020;5.536;2023-01-13T11:21:08;8.90;99.90
67777;DHT22;54576;52.020;5.536;2023-01-13T11:23:40;8.80;99.90
67777;DHT22;54576;52.020;5.536;2023-01-13T11:26:17;8.90;99.90
67777;DHT22;54576;52.020;5.536;2023-01-13T11:31:31;9.00;99.90
67777;DHT22;54576;52.020;5.536;2023-01-13T11:34:31;9.00;99.90
67777;DHT22;54576;52.020;5.536;2023-01-13T11:36:59;9.00;99.90
67777;DHT22;54576;52.020;5.536;2023-01-13T11:42:37;9.10;99.90
67777;DHT22;54576;52.020;5.536;2023-01-13T11:47:44;9.00;99.90
67777;DHT22;54576;52.020;5.536;2023-01-13T11:50:40;9.10;99.90
67777;DHT22;54576;52.020;5.536;2023-01-13T12:06:38;9.20;99.90
67777;DHT22;54576;52.020;5.536;2023-01-13T12:17:33;9.10;99.90
67777;DHT22;54576;52.020;5.536;2023-01-13T12:20:16;9.00;99.90
67777;DHT22;54576;52.020;5.536;2023-01-13T12:22:46;9.00;99.90
67777;DHT22;54576;52.020;5.536;2023-01-13T12:28:50;8.90;99.90
67777;DHT22;54576;52.020;5.536;2023-01-13T12:31:01;8.90;99.90
67777;DHT22;54576;52.020;5.536;2023-01-13T12:33:43;8.90;99.90
67777;DHT22;54576;52.020;5.536;2023-01-13T12:36:24;8.90;99.90
67777;DHT22;54576;52.020;5.536;2023-01-13T12:39:16;8.90;99.90
67777;DHT22;54576;52.020;5.536;2023-01-13T12:41:52;9.00;99.90
67777;DHT22;54576;52.020;5.536;2023-01-13T12:45:04;9.00;99.90
67777;DHT22;54576;52.020;5.536;2023-01-13T12:47:35;9.10;99.90
67777;DHT22;54576;52.020;5.536;2023-01-13T12:52:56;9.30;99.90
67777;DHT22;54576;52.020;5.536;2023-01-13T12:55:26;9.30;99.90
67777;DHT22;54576;52.020;5.536;2023-01-13T13:22:17;9.60;99.90
67777;DHT22;54576;52.020;5.536;2023-01-13T13:27:40;9.60;99.90
67777;DHT22;54576;52.020;5.536;2023-01-13T13:38:33;9.70;99.90
67777;DHT22;54576;52.020;5.536;2023-01-13T13:41:27;9.70;99.90
67777;DHT22;54576;52.020;5.536;2023-01-13T13:44:44;9.70;99.90
67777;DHT22;54576;52.020;5.536;2023-01-13T13:47:38;9.70;99.90
67777;DHT22;54576;52.020;5.536;2023-01-13T13:50:17;9.70;99.90
67777;DHT22;54576;52.020;5.536;2023-01-13T13:55:24;9.80;99.90
67777;DHT22;54576;52.020;5.536;2023-01-13T13:57:54;9.80;99.90
67777;DHT22;54576;52.020;5.536;2023-01-13T14:00:29;9.80;99.90
67777;DHT22;54576;52.020;5.536;2023-01-13T14:03:02;9.80;99.90
67777;DHT22;54576;52.020;5.536;2023-01-13T14:05:30;9.80;99.90
67777;DHT22;54576;52.020;5.536;2023-01-13T14:08:16;9.80;99.90
67777;DHT22;54576;52.020;5.536;2023-01-13T14:10:43;9.80;99.90
67777;DHT22;54576;52.020;5.536;2023-01-13T14:13:18;9.80;99.90
67777;DHT22;54576;52.020;5.536;2023-01-13T14:15:47;9.80;99.90
67777;DHT22;54576;52.020;5.536;2023-01-13T14:18:18;9.70;99.90
67777;DHT22;54576;52.020;5.536;2023-01-13T14:20:51;9.80;99.90
67777;DHT22;54576;52.020;5.536;2023-01-13T14:23:17;9.80;99.90
67777;DHT22;54576;52.020;5.536;2023-01-13T14:25:49;9.80;99.90
67777;DHT22;54576;52.020;5.536;2023-01-13T14:30:49;9.80;99.90
67777;DHT22;54576;52.020;5.536;2023-01-13T14:33:17;9.80;99.90
67777;DHT22;54576;52.020;5.536;2023-01-13T14:36:19;9.80;99.90
67777;DHT22;54576;52.020;5.536;2023-01-13T14:38:47;9.80;99.90
67777;DHT22;54576;52.020;5.536;2023-01-13T14:41:23;9.70;99.90
67777;DHT22;54576;52.020;5.536;2023-01-13T14:43:51;9.70;99.90
67777;DHT22;54576;52.020;5.536;2023-01-13T14:46:18;9.80;99.90
67777;DHT22;54576;52.020;5.536;2023-01-13T14:48:47;9.70;99.90
67777;DHT22;54576;52.020;5.536;2023-01-13T14:51:23;9.70;99.90
67777;DHT22;54576;52.020;5.536;2023-01-13T14:53:49;9.80;99.90
67777;DHT22;54576;52.020;5.536;2023-01-13T14:56:39;9.80;99.90
67777;DHT22;54576;52.020;5.536;2023-01-13T15:01:49;9.80;99.90
67777;DHT22;54576;52.020;5.536;2023-01-13T15:04:25;9.80;99.90
67777;DHT22;54576;52.020;5.536;2023-01-13T15:06:54;9.70;99.90
67777;DHT22;54576;52.020;5.536;2023-01-13T15:09:26;9.70;99.90
67777;DHT22;54576;52.020;5.536;2023-01-13T15:11:53;9.70;99.90
67777;DHT22;54576;52.020;5.536;2023-01-13T15:14:25;9.70;99.90
67777;DHT22;54576;52.020;5.536;2023-01-13T15:16:51;9.60;99.90
67777;DHT22;54576;52.020;5.536;2023-01-13T15:19:19;9.50;99.90
67777;DHT22;54576;52.020;5.536;2023-01-13T15:21:45;9.50;99.90
67777;DHT22;54576;52.020;5.536;2023-01-13T15:24:10;9.50;99.90
67777;DHT22;54576;52.020;5.536;2023-01-13T15:26:36;9.50;99.90
67777;DHT22;54576;52.020;5.536;2023-01-13T15:29:02;9.50;99.90
67777;DHT22;54576;52.020;5.536;2023-01-13T15:31:29;9.50;99.90
67777;DHT22;54576;52.020;5.536;2023-01-13T15:33:55;9.50;99.90
67777;DHT22;54576;52.020;5.536;2023-01-13T15:36:24;9.50;99.90
67777;DHT22;54576;52.020;5.536;2023-01-13T15:38:50;9.50;99.90
67777;DHT22;54576;52.020;5.536;2023-01-13T15:41:16;9.50;99.90
67777;DHT22;54576;52.020;5.536;2023-01-13T15:43:42;9.50;99.90
67777;DHT22;54576;52.020;5.536;2023-01-13T15:46:26;9.50;99.90
67777;DHT22;54576;52.020;5.536;2023-01-13T15:49:27;9.40;99.90
67777;DHT22;54576;52.020;5.536;2023-01-13T15:52:00;9.40;99.90
67777;DHT22;54576;52.020;5.536;2023-01-13T15:54:26;9.40;99.90
67777;DHT22;54576;52.020;5.536;2023-01-13T15:56:52;9.40;99.90
67777;DHT22;54576;52.020;5.536;2023-01-13T15:59:21;9.40;99.90
67777;DHT22;54576;52.020;5.536;2023-01-13T16:01:48;9.30;99.90
67777;DHT22;54576;52.020;5.536;2023-01-13T16:04:13;9.30;99.90
67777;DHT22;54576;52.020;5.536;2023-01-13T16:06:39;9.30;99.90
67777;DHT22;54576;52.020;5.536;2023-01-13T16:09:05;9.30;99.90
67777;DHT22;54576;52.020;5.536;2023-01-13T16:11:31;9.30;99.90
67777;DHT22;54576;52.020;5.536;2023-01-13T16:13:57;9.20;99.90
67777;DHT22;54576;52.020;5.536;2023-01-13T16:16:24;9.30;99.90
67777;DHT22;54576;52.020;5.536;2023-01-13T16:18:51;9.20;99.90
67777;DHT22;54576;52.020;5.536;2023-01-13T16:21:17;9.20;99.90
67777;DHT22;54576;52.020;5.536;2023-01-13T16:23:47;9.20;99.90
67777;DHT22;54576;52.020;5.536;2023-01-13T16:26:27;9.20;99.90
67777;DHT22;54576;52.020;5.536;2023-01-13T16:28:55;9.20;99.90
67777;DHT22;54576;52.020;5.536;2023-01-13T16:31:26;9.30;99.90
67777;DHT22;54576;52.020;5.536;2023-01-13T16:33:54;9.30;99.90
67777;DHT22;54576;52.020;5.536;2023-01-13T16:36:21;9.30;99.90
67777;DHT22;54576;52.020;5.536;2023-01-13T16:38:47;9.30;99.90
67777;DHT22;54576;52.020;5.536;2023-01-13T16:41:13;9.20;99.90
67777;DHT22;54576;52.020;5.536;2023-01-13T16:43:42;9.20;99.90
67777;DHT22;54576;52.020;5.536;2023-01-13T16:46:28;9.20;99.90
67777;DHT22;54576;52.020;5.536;2023-01-13T16:49:01;9.20;99.90
67777;DHT22;54576;52.020;5.536;2023-01-13T16:51:27;9.20;99.90
67777;DHT22;54576;52.020;5.536;2023-01-13T16:53:54;9.20;99.90
67777;DHT22;54576;52.020;5.536;2023-01-13T16:56:24;9.20;99.90
67777;DHT22;54576;52.020;5.536;2023-01-13T16:58:51;9.20;99.90
67777;DHT22;54576;52.020;5.536;2023-01-13T17:01:31;9.20;99.90
67777;DHT22;54576;52.020;5.536;2023-01-13T17:03:58;9.20;99.90
67777;DHT22;54576;52.020;5.536;2023-01-13T17:08:59;9.20;99.90
67777;DHT22;54576;52.020;5.536;2023-01-13T17:11:25;9.30;99.90
67777;DHT22;54576;52.020;5.536;2023-01-13T17:13:50;9.20;99.90
67777;DHT22;54576;52.020;5.536;2023-01-13T17:16:20;9.20;99.90
67777;DHT22;54576;52.020;5.536;2023-01-13T17:18:45;9.20;99.90
67777;DHT22;54576;52.020;5.536;2023-01-13T17:21:11;9.20;99.90
67777;DHT22;54576;52.020;5.536;2023-01-13T17:23:37;9.10;99.90
67777;DHT22;54576;52.020;5.536;2023-01-13T17:26:02;8.70;99.90
67777;DHT22;54576;52.020;5.536;2023-01-13T17:28:28;8.40;99.90
67777;DHT22;54576;52.020;5.536;2023-01-13T17:30:54;8.10;99.90
67777;DHT22;54576;52.020;5.536;2023-01-13T17:33:19;8.00;99.90
67777;DHT22;54576;52.020;5.536;2023-01-13T17:35:45;7.90;99.90
67777;DHT22;54576;52.020;5.536;2023-01-13T17:38:11;7.80;99.90
67777;DHT22;54576;52.020;5.536;2023-01-13T17:40:36;7.90;99.90
67777;DHT22;54576;52.020;5.536;2023-01-13T17:43:02;7.90;99.90
67777;DHT22;54576;52.020;5.536;2023-01-13T17:45:28;7.90;99.90
67777;DHT22;54576;52.020;5.536;2023-01-13T17:47:56;7.80;99.90
67777;DHT22;54576;52.020;5.536;2023-01-13T17:50:23;7.80;99.90
67777;DHT22;54576;52.020;5.536;2023-01-13T17:52:48;7.80;99.90
67777;DHT22;54576;52.020;5.536;2023-01-13T17:55:14;7.70;99.90
67777;DHT22;54576;52.020;5.536;2023-01-13T17:57:39;7.60;99.90
67777;DHT22;54576;52.020;5.536;2023-01-13T18:00:05;7.60;99.90
67777;DHT22;54576;52.020;5.536;2023-01-13T18:02:31;7.60;99.90
67777;DHT22;54576;52.020;5.536;2023-01-13T18:04:58;7.50;99.90
67777;DHT22;54576;52.020;5.536;2023-01-13T18:07:23;7.50;99.90
67777;DHT22;54576;52.020;5.536;2023-01-13T18:09:49;7.40;99.90
67777;DHT22;54576;52.020;5.536;2023-01-13T18:12:14;7.40;99.90
67777;DHT22;54576;52.020;5.536;2023-01-13T18:14:40;7.50;99.90